Get Adobe Flash player

РУС

ENG

 
  Pireps - S7
 

Рейс SBIS7 39

  • Выполнял: Andrew Vyunov
  • Аэропорт отправления: Domodedovo Airport (UUDD)
  • Аэропорт назначения: Pulkovo Airport (ULLI)
  • Тип ВС: A319-112 (VP-BHK)
  • Время полёта: 01.18
  • Дата полёта: 22.04.2019
  • Маршрут: WT OBE1D OBELU B239 AJ R900 LANSO R962 GENPA
  • Статус: Одобрен

Детали полёта
Gross Revenue:
(107 load / $ 300.00 per unit
$ 32, 100.00
Fuel Cost:
(4186 fuel used @ 5.1 / unit)
$ 21, 348.60


Дополнительная информация о полёте:

Лог

Aircraft Used in flight is Airbus A320-214 CFM Sharklets Airbus house color
13:48 Boarding
13:48 Brakes are On
13:49 Engine 1 Started
13:49 Engine 2 Started
13:49 Strobe Lights ON at 600 AGL
13:49 Beacon Lights ON at 600 AGL
13:49 Navigation Lights ON at 600 AGL
13:51 Taxi Lights ON at 600 AGL
13:51 Pushing back
13:52 Boarding
13:54 Brakes are Released
13:56Flaps 1 Selected at 600ft and 24kts
13:56Flaps 2 Selected at 600ft and 12kts
13:56Flaps 3 Selected at 600ft and 12kts
13:59Flaps 4 Selected at 600ft and 5kts
13:59 Landing Lights ON at 600 AGL
14:00 You Took off @ 166 Knots and Flaps at Position 4
Departure Weather
UUDD 221030Z 03003MPS 300V110 CAVOK 17/M05 Q1028 R88/CLRD95 NOSIGrn
14:00 Landing Gear Up @ 171 Knots and 860 Feet
14:00Flaps 3 Selected at 1540ft and 170kts
14:01Flaps 2 Selected at 3590ft and 201kts
14:01 Landing Lights OFF at 3900 AGL
14:01 Taxi Lights OFF at 3940 AGL
14:01Flaps 1 Selected at 4120ft and 215kts
14:03Flaps Retracted at 9280ft and 238kts
14:16 Overspeed
14:16 Recovered from Overspeed
14:58Flaps 1 Selected at 7540ft and 232kts
14:58Flaps 2 Selected at 7170ft and 222kts
14:58Flaps 3 Selected at 6830ft and 209kts
14:58 Landing Gear Down @ 207 Knots and 6770 Feet
15:01Flaps 5 Selected at 3030ft and 182kts
15:04 Taxi Lights ON at 1020 AGL
15:04 Landing Lights ON at 1020 AGL
15:05 You Landed @ 163 Knots and with -250 Vertical Speed
Arrival Weather
ULLI 221030Z 26006MPS CAVOK 19/M01 Q1027 R88/090060 NOSIGrn
15:06 Taxiing to gate
15:06Flaps Retracted at 90ft and 33kts
15:07 Brakes are On
Pirep logged with S7 Tracking 1.0.0.13


!!! Превышение допустимого значения вертикальной скорости при посадке: -5%


Общая оценка полета : 95%




Route Map



 
 
   
 
Новости

26.04.2018 - Полеты в X-PLANE

Наш клиент S7 Pad поддерживает полеты как в MFSX, Prepar3d V4, так и в X-PLANE 10 и 11 версиях!
На нашем сайте в разреде загруки есть плагин XPUIPIC for X-plane.
Приятных Вам полетов и мягких посадок!

   
 
Авторизация






Регистрация

Восстановить пароль?

Мы в соц. сетях

      



   
  TeamSpeak3 ts.va-s7.ru


   
 

   
 



   
 


Яндекс.Метрика

www.va-s7.ru 2011-2019
Все права защищены.



Минуточку внимания!
Мы не имеем отношения к торговым маркам "S7" и "Globus" и их представителям.
Эмблемы на сайте являются собственностью соответствующих компаний.

аэронавигационная метеорологическая и любая другая информация с данного ресурса ни в коем случае не должна использоваться для реальных полетов